createdAt,value
2023-05-06T00:00:27.581Z,9.10
2023-05-06T00:02:56.701Z,9.00
2023-05-06T00:05:25.143Z,5.27
2023-05-06T00:07:53.588Z,2.47
2023-05-06T00:10:22.349Z,2.47
2023-05-06T00:12:52.129Z,9.30
2023-05-06T00:15:20.582Z,1.23
2023-05-06T00:17:49.071Z,1.70
2023-05-06T00:20:17.703Z,4.43
2023-05-06T00:22:46.280Z,3.60
2023-05-06T00:25:14.678Z,9.43
2023-05-06T00:27:42.999Z,11.87
2023-05-06T00:30:13.912Z,6.87
2023-05-06T00:32:42.414Z,12.83
2023-05-06T00:35:11.298Z,7.80
2023-05-06T00:37:39.881Z,9.07
2023-05-06T00:40:08.979Z,9.40
2023-05-06T00:42:37.419Z,12.37
2023-05-06T00:45:06.135Z,10.70
2023-05-06T00:47:35.963Z,13.00
2023-05-06T00:50:05.056Z,7.37
2023-05-06T00:52:33.609Z,5.30
2023-05-06T00:55:02.135Z,7.83
2023-05-06T00:57:30.594Z,15.00
2023-05-06T00:59:58.939Z,12.47
2023-05-06T01:02:39.615Z,14.37
2023-05-06T01:05:16.264Z,15.47
2023-05-06T01:07:48.276Z,13.67
2023-05-06T01:10:23.193Z,13.50
2023-05-06T01:12:53.883Z,15.57
2023-05-06T01:15:23.651Z,15.20
2023-05-06T01:17:52.817Z,13.67
2023-05-06T01:20:23.027Z,4.83
2023-05-06T01:22:51.793Z,12.30
2023-05-06T01:25:21.998Z,7.80
2023-05-06T01:27:50.373Z,13.53
2023-05-06T01:30:21.302Z,4.10
2023-05-06T01:32:55.093Z,1.53
2023-05-06T01:35:27.113Z,3.37
2023-05-06T01:37:59.458Z,1.97
2023-05-06T01:40:33.069Z,1.00
2023-05-06T01:43:02.340Z,0.53
2023-05-06T01:45:32.694Z,0.60
2023-05-06T01:48:01.348Z,1.23
2023-05-06T01:50:29.965Z,2.10
2023-05-06T01:53:00.170Z,1.80
2023-05-06T01:55:28.958Z,0.60
2023-05-06T01:57:58.816Z,1.87
2023-05-06T02:00:28.465Z,1.33
2023-05-06T02:02:57.008Z,8.30
2023-05-06T02:05:26.481Z,10.47
2023-05-06T02:07:54.929Z,2.97
2023-05-06T02:10:23.460Z,3.33
2023-05-06T02:12:51.888Z,1.63
2023-05-06T02:15:21.833Z,9.17
2023-05-06T02:17:50.464Z,7.40
2023-05-06T02:20:19.059Z,12.40
2023-05-06T02:22:47.468Z,14.60
2023-05-06T02:25:16.144Z,17.23
2023-05-06T02:27:45.040Z,17.93
2023-05-06T02:30:14.812Z,17.83
2023-05-06T02:32:44.623Z,10.33
2023-05-06T02:35:13.067Z,1.57
2023-05-06T02:37:41.651Z,10.53
2023-05-06T02:40:10.454Z,13.97
2023-05-06T02:42:38.838Z,15.47
2023-05-06T02:45:07.999Z,14.53
2023-05-06T02:47:36.489Z,16.27
2023-05-06T02:50:06.600Z,13.03
2023-05-06T02:52:35.116Z,13.30
2023-05-06T02:55:03.678Z,15.07
2023-05-06T02:57:32.168Z,14.73
2023-05-06T03:00:00.717Z,14.77
2023-05-06T03:02:29.173Z,15.17
2023-05-06T03:04:57.586Z,11.30
2023-05-06T03:07:27.486Z,9.13
2023-05-06T03:09:55.980Z,12.03
2023-05-06T03:12:24.614Z,10.30
2023-05-06T03:14:53.168Z,11.13
2023-05-06T03:17:21.722Z,5.93
2023-05-06T03:19:53.190Z,4.53
2023-05-06T03:22:21.815Z,0.70
2023-05-06T03:24:51.706Z,2.83
2023-05-06T03:27:20.128Z,13.83
2023-05-06T03:29:48.500Z,6.63
2023-05-06T03:32:17.194Z,8.13
2023-05-06T03:34:45.584Z,3.50
2023-05-06T03:37:14.026Z,4.03
2023-05-06T03:39:42.467Z,2.00
2023-05-06T03:42:12.301Z,5.57
2023-05-06T03:44:40.750Z,5.63
2023-05-06T03:47:09.259Z,5.97
2023-05-06T03:49:37.865Z,1.13
2023-05-06T03:52:06.956Z,0.80
2023-05-06T03:54:35.521Z,2.20
2023-05-06T03:57:04.197Z,3.73
2023-05-06T03:59:34.107Z,1.87
2023-05-06T04:02:02.701Z,1.17
2023-05-06T04:04:31.168Z,0.70
2023-05-06T04:06:59.547Z,8.53
2023-05-06T04:09:28.050Z,4.03
2023-05-06T04:11:56.948Z,18.13
2023-05-06T04:14:25.462Z,16.80
2023-05-06T04:16:55.355Z,16.27
2023-05-06T04:19:23.907Z,15.43
2023-05-06T04:21:52.376Z,4.63
2023-05-06T04:24:21.490Z,16.20
2023-05-06T04:26:50.117Z,18.50
2023-05-06T04:29:18.572Z,17.40
2023-05-06T04:31:47.495Z,16.60
2023-05-06T04:34:18.252Z,7.03
2023-05-06T04:36:47.752Z,15.83
2023-05-06T04:39:16.377Z,18.03
2023-05-06T04:41:44.942Z,7.20
2023-05-06T04:44:13.520Z,1.13
2023-05-06T04:46:42.134Z,1.10
2023-05-06T04:49:12.431Z,1.07
2023-05-06T04:51:42.483Z,1.57
2023-05-06T04:54:11.065Z,3.03
2023-05-06T04:56:39.560Z,5.67
2023-05-06T04:59:08.006Z,2.23
2023-05-06T05:01:36.826Z,1.13
2023-05-06T05:04:05.611Z,0.80
2023-05-06T05:06:34.201Z,1.30
2023-05-06T05:09:04.096Z,3.80
2023-05-06T05:11:32.716Z,2.37
2023-05-06T05:14:02.273Z,1.83
2023-05-06T05:16:31.337Z,3.77
2023-05-06T05:19:01.569Z,1.07
2023-05-06T05:21:31.783Z,0.70
2023-05-06T05:24:00.288Z,1.63
2023-05-06T05:26:30.122Z,0.83
2023-05-06T05:28:58.539Z,2.30
2023-05-06T05:31:26.967Z,3.33
2023-05-06T05:33:55.517Z,2.93
2023-05-06T05:36:24.241Z,1.97
2023-05-06T05:38:55.492Z,5.80
2023-05-06T05:41:23.958Z,4.20
2023-05-06T05:43:54.015Z,1.33
2023-05-06T05:46:22.529Z,3.70
2023-05-06T05:48:50.997Z,2.27
2023-05-06T05:51:19.426Z,2.00
2023-05-06T05:53:47.828Z,1.63
2023-05-06T05:56:18.086Z,6.13
2023-05-06T05:58:47.497Z,2.53
2023-05-06T06:01:17.548Z,0.70
2023-05-06T06:03:46.294Z,0.70
2023-05-06T06:06:14.859Z,8.50
2023-05-06T06:08:43.252Z,2.50
2023-05-06T06:11:12.077Z,11.00
2023-05-06T06:13:40.456Z,11.57
2023-05-06T06:16:09.039Z,18.57
2023-05-06T06:18:38.824Z,0.77
2023-05-06T06:21:07.340Z,12.70
2023-05-06T06:23:35.806Z,11.37
2023-05-06T06:26:04.646Z,0.60
2023-05-06T06:28:33.095Z,10.13
2023-05-06T06:31:01.963Z,1.00
2023-05-06T06:33:30.591Z,11.73
2023-05-06T06:36:00.547Z,15.70
2023-05-06T06:38:29.199Z,16.57
2023-05-06T06:40:57.820Z,19.20
2023-05-06T06:43:26.827Z,22.03
2023-05-06T06:45:57.985Z,5.20
2023-05-06T06:48:26.721Z,20.53
2023-05-06T06:50:55.587Z,20.83
2023-05-06T06:53:25.908Z,20.97
2023-05-06T06:55:54.484Z,19.57
2023-05-06T06:58:22.967Z,15.63
2023-05-06T07:00:51.547Z,11.80
2023-05-06T07:03:20.345Z,15.40
2023-05-06T07:05:48.941Z,15.60
2023-05-06T07:08:18.118Z,18.70
2023-05-06T07:10:48.355Z,11.80
2023-05-06T07:13:16.939Z,2.60
2023-05-06T07:15:45.428Z,5.20
2023-05-06T07:18:13.861Z,1.80
2023-05-06T07:20:42.439Z,8.97
2023-05-06T07:23:10.949Z,4.00
2023-05-06T07:25:39.498Z,2.87
2023-05-06T07:28:09.331Z,2.63
2023-05-06T07:30:39.542Z,4.67
2023-05-06T07:33:09.044Z,0.80
2023-05-06T07:35:38.363Z,8.93
2023-05-06T07:38:06.975Z,2.63
2023-05-06T07:40:35.626Z,10.10
2023-05-06T07:43:04.153Z,8.73
2023-05-06T07:45:34.253Z,3.80
2023-05-06T07:48:02.754Z,0.63
2023-05-06T07:50:31.638Z,6.60
2023-05-06T07:53:01.758Z,3.43
2023-05-06T07:55:32.693Z,5.30
2023-05-06T07:58:02.371Z,1.37
2023-05-06T08:00:30.815Z,8.57
2023-05-06T08:03:00.916Z,4.43
2023-05-06T08:05:29.412Z,3.10
2023-05-06T08:07:57.937Z,1.73
2023-05-06T08:10:26.499Z,2.50
2023-05-06T08:12:54.944Z,2.07
2023-05-06T08:15:23.561Z,1.07
2023-05-06T08:17:52.049Z,2.47
2023-05-06T08:20:21.942Z,0.50
2023-05-06T08:22:50.415Z,1.00
2023-05-06T08:25:19.143Z,0.40
2023-05-06T08:27:47.790Z,0.40
2023-05-06T08:30:16.792Z,3.10
2023-05-06T08:32:45.256Z,1.43
2023-05-06T08:35:13.987Z,0.60
2023-05-06T08:37:43.928Z,0.83
2023-05-06T08:40:17.267Z,0.50
2023-05-06T08:42:47.848Z,0.30
2023-05-06T08:45:16.635Z,1.33
2023-05-06T08:47:45.369Z,2.70
2023-05-06T08:50:13.830Z,0.97
2023-05-06T08:52:42.498Z,2.20
2023-05-06T08:55:13.004Z,1.23
2023-05-06T08:57:42.464Z,2.40
2023-05-06T09:00:11.842Z,1.27
2023-05-06T09:02:44.066Z,2.10
2023-05-06T09:05:13.028Z,2.53
2023-05-06T09:07:41.716Z,3.83
2023-05-06T09:10:17.973Z,3.93
2023-05-06T09:12:46.832Z,3.87
2023-05-06T09:15:15.576Z,1.77
2023-05-06T09:17:44.242Z,2.50
2023-05-06T09:20:14.240Z,3.93
2023-05-06T09:22:44.874Z,3.60
2023-05-06T09:25:14.677Z,2.50
2023-05-06T09:27:43.097Z,0.93
2023-05-06T09:30:12.791Z,1.77
2023-05-06T09:32:41.796Z,2.80
2023-05-06T09:35:11.687Z,2.57
2023-05-06T09:37:40.730Z,1.63
2023-05-06T09:40:10.374Z,1.93
2023-05-06T09:42:40.700Z,2.43
2023-05-06T09:45:10.542Z,0.40
2023-05-06T09:47:39.459Z,5.83
2023-05-06T09:50:08.536Z,4.00
2023-05-06T09:52:37.135Z,5.10
2023-05-06T09:55:08.610Z,7.20
2023-05-06T09:57:38.232Z,6.27
2023-05-06T10:00:12.122Z,5.27
2023-05-06T10:02:42.125Z,6.77
2023-05-06T10:05:12.033Z,1.10
2023-05-06T10:07:41.109Z,2.33
2023-05-06T10:10:13.592Z,1.37
2023-05-06T10:12:42.201Z,2.17
2023-05-06T10:15:15.868Z,1.53
2023-05-06T10:17:48.214Z,0.67
2023-05-06T10:20:17.346Z,0.60
2023-05-06T10:22:53.096Z,2.63
2023-05-06T10:25:30.229Z,0.70
2023-05-06T10:28:01.559Z,2.73
2023-05-06T10:30:34.589Z,2.27
2023-05-06T10:33:05.775Z,2.40
2023-05-06T10:35:38.428Z,0.67
2023-05-06T10:38:09.052Z,0.60
2023-05-06T10:40:37.579Z,2.03
2023-05-06T10:43:28.098Z,1.57
2023-05-06T10:46:04.949Z,2.27
2023-05-06T10:48:34.006Z,3.97
2023-05-06T10:51:22.992Z,3.77
2023-05-06T10:53:58.315Z,4.27
2023-05-06T10:56:26.855Z,1.00
2023-05-06T10:58:56.363Z,3.07
2023-05-06T11:01:28.112Z,3.37
2023-05-06T11:03:56.704Z,1.17
2023-05-06T11:06:35.668Z,1.17
2023-05-06T11:09:05.204Z,1.30
2023-05-06T11:11:53.049Z,1.40
2023-05-06T11:14:31.454Z,1.33
2023-05-06T11:17:02.257Z,3.93
2023-05-06T11:19:31.467Z,1.27
2023-05-06T11:22:00.933Z,1.03
2023-05-06T11:24:29.940Z,1.33
2023-05-06T11:26:58.849Z,0.70
2023-05-06T11:29:30.591Z,0.50
2023-05-06T11:31:59.119Z,2.23
2023-05-06T11:34:30.010Z,1.07
2023-05-06T11:37:02.502Z,4.10
2023-05-06T11:39:33.312Z,0.73
2023-05-06T11:42:07.211Z,0.97
2023-05-06T11:44:36.790Z,1.13
2023-05-06T11:47:06.611Z,1.27
2023-05-06T11:49:39.733Z,1.10
2023-05-06T11:52:08.361Z,1.07
2023-05-06T11:54:37.344Z,1.47
2023-05-06T11:57:06.015Z,1.83
2023-05-06T11:59:34.906Z,1.40
2023-05-06T12:02:04.703Z,0.93
2023-05-06T12:04:41.342Z,2.23
2023-05-06T12:07:10.372Z,4.27
2023-05-06T12:09:39.692Z,2.60
2023-05-06T12:12:08.914Z,3.30
2023-05-06T12:14:38.101Z,3.97
2023-05-06T12:17:07.164Z,0.80
2023-05-06T12:19:35.704Z,3.03
2023-05-06T12:22:18.415Z,2.30
2023-05-06T12:24:46.965Z,4.33
2023-05-06T12:27:15.533Z,1.83
2023-05-06T12:29:54.047Z,1.97
2023-05-06T12:32:22.561Z,1.73
2023-05-06T12:34:51.100Z,2.77
2023-05-06T12:37:27.413Z,4.20
2023-05-06T12:40:08.388Z,3.00
2023-05-06T12:42:36.867Z,3.27
2023-05-06T12:45:17.749Z,1.33
2023-05-06T12:47:54.866Z,3.17
2023-05-06T12:50:33.327Z,3.33
2023-05-06T12:53:03.713Z,0.60
2023-05-06T12:55:33.560Z,4.20
2023-05-06T12:58:02.689Z,1.97
2023-05-06T13:00:31.483Z,1.83
2023-05-06T13:03:00.140Z,1.73
2023-05-06T13:05:28.731Z,2.47
2023-05-06T13:07:57.255Z,2.10
2023-05-06T13:10:27.507Z,1.17
2023-05-06T13:12:56.652Z,0.80
2023-05-06T13:15:25.760Z,3.50
2023-05-06T13:17:54.323Z,1.37
2023-05-06T13:20:22.794Z,3.47
2023-05-06T13:22:54.924Z,3.53
2023-05-06T13:25:24.285Z,5.10
2023-05-06T13:27:54.533Z,5.90
2023-05-06T13:30:23.125Z,6.20
2023-05-06T13:32:51.966Z,4.90
2023-05-06T13:35:20.537Z,5.30
2023-05-06T13:37:49.342Z,3.20
2023-05-06T13:40:17.765Z,1.67
2023-05-06T13:42:46.319Z,2.90
2023-05-06T13:45:16.333Z,2.17
2023-05-06T13:47:44.885Z,2.93
2023-05-06T13:50:13.535Z,3.37
2023-05-06T13:52:42.077Z,2.20
2023-05-06T13:55:11.202Z,0.93
2023-05-06T13:57:40.004Z,2.17
2023-05-06T14:00:10.926Z,0.77
2023-05-06T14:02:40.912Z,1.77
2023-05-06T14:05:09.834Z,0.83
2023-05-06T14:07:40.445Z,3.77
2023-05-06T14:10:09.740Z,4.17
2023-05-06T14:12:38.185Z,5.80
2023-05-06T14:15:07.696Z,5.47
2023-05-06T14:17:36.347Z,1.63
2023-05-06T14:20:06.693Z,1.07
2023-05-06T14:22:35.103Z,2.07
2023-05-06T14:25:03.473Z,1.33
2023-05-06T14:27:32.435Z,0.90
2023-05-06T14:30:00.959Z,1.50
2023-05-06T14:32:29.456Z,3.73
2023-05-06T14:34:57.873Z,1.53
2023-05-06T14:37:27.929Z,2.17
2023-05-06T14:39:56.488Z,4.03
2023-05-06T14:42:24.861Z,3.83
2023-05-06T14:44:53.445Z,3.30
2023-05-06T14:47:22.170Z,5.10
2023-05-06T14:49:50.787Z,2.80
2023-05-06T14:52:19.225Z,3.23
2023-05-06T14:54:49.327Z,1.10
2023-05-06T14:57:17.772Z,4.13
2023-05-06T14:59:46.155Z,3.00
2023-05-06T15:02:14.678Z,2.20
2023-05-06T15:04:43.217Z,5.47
2023-05-06T15:07:11.617Z,3.87
2023-05-06T15:09:40.192Z,2.10
2023-05-06T15:12:10.040Z,6.13
2023-05-06T15:14:38.448Z,2.43
2023-05-06T15:17:07.146Z,1.93
2023-05-06T15:19:35.717Z,2.97
2023-05-06T15:22:04.477Z,3.57
2023-05-06T15:24:33.285Z,3.47
2023-05-06T15:27:02.375Z,2.50
2023-05-06T15:29:32.091Z,1.50
2023-05-06T15:32:00.689Z,0.40
2023-05-06T15:34:29.276Z,3.10
2023-05-06T15:37:00.825Z,8.17
2023-05-06T15:39:29.523Z,13.33
2023-05-06T15:42:00.253Z,4.90
2023-05-06T15:44:28.665Z,4.17
2023-05-06T15:46:58.378Z,7.93
2023-05-06T15:49:49.464Z,2.00
2023-05-06T15:52:15.103Z,2.77
2023-05-06T15:54:48.860Z,5.23
2023-05-06T15:57:18.675Z,4.43
2023-05-06T15:59:47.346Z,3.10
2023-05-06T16:04:48.874Z,2.50
2023-05-06T16:07:17.419Z,1.40
2023-05-06T16:09:45.806Z,7.20
2023-05-06T16:12:14.966Z,8.73
2023-05-06T16:14:43.462Z,7.97
2023-05-06T16:17:11.863Z,5.43
2023-05-06T16:19:41.747Z,12.47
2023-05-06T16:22:10.158Z,4.53
2023-05-06T16:24:38.571Z,4.87
2023-05-06T16:27:07.146Z,5.93
2023-05-06T16:29:35.578Z,1.07
2023-05-06T16:32:04.116Z,1.40
2023-05-06T16:34:32.646Z,2.07
2023-05-06T16:37:02.498Z,0.77
2023-05-06T16:39:30.851Z,1.53
2023-05-06T16:41:59.307Z,2.27
2023-05-06T16:44:27.912Z,0.37
2023-05-06T16:46:56.595Z,2.53
2023-05-06T16:49:27.969Z,2.77
2023-05-06T16:51:57.105Z,2.70
2023-05-06T16:54:27.059Z,5.27
2023-05-06T16:56:55.634Z,6.73
2023-05-06T16:59:24.336Z,3.93
2023-05-06T17:01:52.896Z,6.07
2023-05-06T17:04:21.344Z,3.03
2023-05-06T17:06:49.722Z,7.60
2023-05-06T17:09:18.105Z,0.70
2023-05-06T17:11:47.910Z,3.97
2023-05-06T17:14:16.756Z,1.27
2023-05-06T17:16:45.268Z,3.07
2023-05-06T17:19:14.069Z,2.70
2023-05-06T17:21:42.860Z,3.33
2023-05-06T17:24:11.336Z,2.93
2023-05-06T17:26:40.855Z,5.90
2023-05-06T17:29:10.659Z,3.47
2023-05-06T17:31:39.078Z,2.47
2023-05-06T17:34:07.567Z,6.17
2023-05-06T17:36:36.084Z,3.20
2023-05-06T17:39:05.296Z,2.27
2023-05-06T17:41:33.787Z,2.60
2023-05-06T17:44:02.256Z,4.07
2023-05-06T17:46:33.349Z,3.83
2023-05-06T17:49:02.012Z,0.60
2023-05-06T17:51:30.808Z,1.27
2023-05-06T17:53:59.305Z,5.53
2023-05-06T17:56:28.088Z,1.13
2023-05-06T17:58:58.164Z,4.40
2023-05-06T18:01:26.938Z,5.93
2023-05-06T18:03:56.939Z,3.00
2023-05-06T18:06:25.535Z,4.70
2023-05-06T18:08:53.974Z,3.13
2023-05-06T18:11:22.484Z,3.90
2023-05-06T18:13:50.999Z,1.47
2023-05-06T18:16:19.409Z,3.27
2023-05-06T18:18:48.393Z,1.13
2023-05-06T18:21:18.296Z,1.07
2023-05-06T18:23:47.620Z,1.67
2023-05-06T18:26:39.501Z,1.37
2023-05-06T18:29:08.253Z,1.17
2023-05-06T18:31:36.711Z,1.87
2023-05-06T18:34:05.289Z,2.27
2023-05-06T18:36:36.516Z,3.03
2023-05-06T18:39:06.334Z,1.93
2023-05-06T18:41:34.874Z,0.77
2023-05-06T18:44:04.272Z,0.40
2023-05-06T18:46:32.834Z,1.00
2023-05-06T18:49:02.004Z,1.83
2023-05-06T18:51:32.108Z,2.40
2023-05-06T18:54:01.086Z,1.37
2023-05-06T18:56:30.994Z,1.80
2023-05-06T18:58:59.784Z,0.93
2023-05-06T19:01:28.295Z,2.20
2023-05-06T19:03:57.535Z,2.13
2023-05-06T19:06:26.028Z,0.97
2023-05-06T19:08:54.792Z,0.30
2023-05-06T19:11:23.184Z,0.37
2023-05-06T19:13:53.065Z,0.77
2023-05-06T19:16:21.461Z,1.17
2023-05-06T19:18:49.868Z,1.10
2023-05-06T19:21:18.710Z,0.77
2023-05-06T19:23:47.196Z,0.90
2023-05-06T19:26:15.883Z,0.90
2023-05-06T19:28:44.338Z,0.90
2023-05-06T19:31:16.832Z,0.73
2023-05-06T19:33:45.412Z,1.93
2023-05-06T19:36:13.870Z,1.00
2023-05-06T19:38:42.322Z,0.97
2023-05-06T19:41:11.027Z,2.23
2023-05-06T19:43:42.932Z,1.63
2023-05-06T19:46:11.595Z,1.43
2023-05-06T19:48:41.426Z,3.03
2023-05-06T19:51:10.913Z,1.93
2023-05-06T19:53:39.593Z,3.07
2023-05-06T19:56:11.685Z,1.87
2023-05-06T19:58:41.943Z,1.63
2023-05-06T20:01:10.369Z,2.37
2023-05-06T20:03:38.972Z,1.27
2023-05-06T20:06:08.901Z,1.90
2023-05-06T20:08:37.300Z,2.87
2023-05-06T20:11:05.968Z,1.63
2023-05-06T20:13:34.449Z,0.87
2023-05-06T20:16:04.265Z,2.10
2023-05-06T20:18:33.635Z,1.27
2023-05-06T20:21:02.016Z,1.13
2023-05-06T20:23:32.177Z,1.90
2023-05-06T20:26:00.662Z,1.13
2023-05-06T20:28:29.042Z,1.60
2023-05-06T20:30:59.709Z,0.40
2023-05-06T20:33:28.144Z,0.50
2023-05-06T20:35:56.533Z,0.50
2023-05-06T20:38:26.887Z,1.97
2023-05-06T20:40:58.004Z,3.43
2023-05-06T20:43:26.434Z,1.63
2023-05-06T20:45:54.840Z,0.53
2023-05-06T20:48:23.335Z,1.20
2023-05-06T20:50:54.085Z,1.63
2023-05-06T20:53:22.534Z,2.30
2023-05-06T20:55:51.009Z,0.77
2023-05-06T20:58:20.897Z,1.40
2023-05-06T21:00:50.375Z,1.23
2023-05-06T21:03:18.875Z,0.80
2023-05-06T21:05:47.399Z,0.60
2023-05-06T21:08:16.661Z,2.53
2023-05-06T21:10:45.125Z,1.17
2023-05-06T21:13:14.761Z,0.60
2023-05-06T21:15:44.611Z,0.90
2023-05-06T21:18:13.074Z,0.70
2023-05-06T21:20:41.512Z,2.87
2023-05-06T21:23:10.122Z,0.67
2023-05-06T21:25:38.567Z,1.20
2023-05-06T21:28:07.048Z,0.40
2023-05-06T21:30:36.450Z,0.60
2023-05-06T21:33:08.336Z,0.77
2023-05-06T21:35:36.853Z,1.47
2023-05-06T21:38:05.614Z,1.03
2023-05-06T21:40:34.076Z,0.67
2023-05-06T21:43:02.434Z,0.40
2023-05-06T21:45:30.875Z,2.07
2023-05-06T21:47:59.301Z,1.23
2023-05-06T21:50:29.097Z,1.00
2023-05-06T21:52:57.564Z,0.93
2023-05-06T21:55:27.753Z,2.20
2023-05-06T21:57:56.244Z,0.73
2023-05-06T22:00:24.741Z,0.70
2023-05-06T22:02:53.558Z,0.97
2023-05-06T22:05:22.123Z,1.53
2023-05-06T22:07:52.096Z,0.40
2023-05-06T22:10:20.638Z,1.13
2023-05-06T22:12:49.086Z,1.50
2023-05-06T22:15:17.543Z,0.57
2023-05-06T22:17:46.315Z,0.60
2023-05-06T22:20:15.310Z,0.40
2023-05-06T22:22:44.298Z,1.97
2023-05-06T22:25:14.220Z,1.37
2023-05-06T22:27:42.803Z,3.67
2023-05-06T22:30:11.901Z,2.57
2023-05-06T22:32:40.377Z,4.13
2023-05-06T22:35:09.629Z,0.73
2023-05-06T22:37:38.260Z,5.57
2023-05-06T22:40:07.389Z,0.70
2023-05-06T22:42:37.129Z,3.90
2023-05-06T22:45:07.419Z,1.60
2023-05-06T22:47:35.955Z,4.77
2023-05-06T22:50:04.422Z,3.37
2023-05-06T22:52:34.177Z,1.40
2023-05-06T22:55:02.622Z,1.80
2023-05-06T22:57:31.126Z,0.80
2023-05-06T23:00:01.147Z,2.47
2023-05-06T23:02:29.734Z,1.53
2023-05-06T23:04:59.478Z,1.67
2023-05-06T23:07:27.977Z,2.47
2023-05-06T23:09:56.500Z,2.33
2023-05-06T23:12:24.933Z,2.30
2023-05-06T23:14:53.462Z,1.53
2023-05-06T23:17:23.306Z,2.43
2023-05-06T23:19:51.777Z,4.20
2023-05-06T23:22:20.316Z,3.20
2023-05-06T23:24:48.745Z,3.27
2023-05-06T23:27:17.233Z,1.30
2023-05-06T23:29:45.832Z,0.50
2023-05-06T23:32:14.299Z,0.80
2023-05-06T23:34:44.322Z,2.70
2023-05-06T23:37:12.936Z,1.67
2023-05-06T23:39:41.434Z,2.20
2023-05-06T23:42:11.191Z,1.83
2023-05-06T23:44:39.752Z,1.50
2023-05-06T23:47:08.195Z,1.43
2023-05-06T23:49:37.163Z,1.17
2023-05-06T23:52:07.150Z,3.07
2023-05-06T23:54:35.871Z,0.60
2023-05-06T23:57:04.410Z,4.73
2023-05-06T23:59:34.069Z,4.87
